Time;durP1;ratioP1;P1;durP2;ratioP2;P2;SDS_P1;SDS_P2;PMS_P1;PMS_P2;Temp;Humidity;BMP_temperature;BMP_pressure;BME280_temperature;BME280_humidity;BME280_pressure;Samples;Min_cycle;Max_cycle;Signal;HPM_P1;HPM_P2
2022/03/05 00:01:08;;;;;;;39.30;16.38;;;0.40;61.90;;;;;;4958439;29;20490;-84
2022/03/05 00:03:36;;;;;;;29.43;14.97;;;0.50;61.10;;;;;;4946050;29;20618;-84
2022/03/05 00:06:03;;;;;;;33.17;15.37;;;0.60;60.60;;;;;;4955488;29;20478;-84
2022/03/05 00:08:30;;;;;;;35.23;15.70;;;0.60;60.30;;;;;;4940561;29;20457;-84
2022/03/05 00:10:56;;;;;;;33.60;15.20;;;0.60;60.60;;;;;;4945071;29;20480;-84
2022/03/05 00:13:23;;;;;;;33.77;15.00;;;0.50;61.30;;;;;;4956425;29;20214;-84
2022/03/05 00:15:51;;;;;;;39.23;18.13;;;0.50;61.40;;;;;;4942860;28;20457;-84
2022/03/05 00:18:18;;;;;;;36.27;18.30;;;0.60;61.50;;;;;;4955556;29;20483;-84
2022/03/05 00:20:46;;;;;;;38.83;15.97;;;0.60;61.60;;;;;;4947235;29;20480;-84
2022/03/05 00:23:14;;;;;;;34.17;15.20;;;0.50;62.00;;;;;;4947483;29;20452;-84
2022/03/05 00:25:42;;;;;;;37.70;17.80;;;0.50;62.40;;;;;;4954191;29;20455;-84
2022/03/05 00:28:09;;;;;;;40.43;18.27;;;0.40;63.40;;;;;;4941535;29;20456;-82
2022/03/05 00:30:36;;;;;;;34.73;15.27;;;0.40;63.90;;;;;;4953566;29;20564;-84
2022/03/05 00:33:03;;;;;;;38.87;19.53;;;0.40;64.60;;;;;;4941304;29;20464;-84
2022/03/05 00:35:30;;;;;;;34.90;16.20;;;0.30;64.50;;;;;;4945595;29;20456;-84
2022/03/05 00:37:58;;;;;;;40.93;16.17;;;0.30;64.60;;;;;;4950088;29;20480;-84
2022/03/05 00:40:24;;;;;;;40.20;16.47;;;0.20;65.10;;;;;;4948860;29;20807;-83
2022/03/05 00:42:51;;;;;;;44.03;18.73;;;0.30;64.90;;;;;;4939703;29;20469;-83
2022/03/05 00:45:18;;;;;;;42.43;19.13;;;0.40;65.00;;;;;;4951441;29;20528;-83
2022/03/05 00:47:45;;;;;;;46.63;19.90;;;0.30;64.60;;;;;;4945759;29;20463;-83
2022/03/05 00:50:12;;;;;;;45.17;17.53;;;0.40;64.70;;;;;;4950414;28;20460;-83
2022/03/05 00:52:39;;;;;;;44.40;19.13;;;0.30;65.20;;;;;;4953178;29;20460;-82
2022/03/05 00:55:08;;;;;;;43.10;19.20;;;0.30;65.60;;;;;;4953674;29;20452;-83
2022/03/05 00:57:35;;;;;;;47.30;21.50;;;0.20;66.00;;;;;;4957356;29;20488;-83
2022/03/05 01:00:04;;;;;;;49.43;21.10;;;0.10;67.70;;;;;;4952577;29;20927;-82
2022/03/05 01:02:32;;;;;;;46.77;18.60;;;0.10;67.30;;;;;;4940686;29;20862;-83
2022/03/05 01:04:58;;;;;;;44.17;18.00;;;0.10;67.90;;;;;;4946985;28;20456;-83
2022/03/05 01:07:25;;;;;;;44.72;19.33;;;0.10;68.20;;;;;;4959663;28;20471;-83
2022/03/05 01:09:52;;;;;;;44.70;20.30;;;0.00;69.40;;;;;;4947040;29;20188;-83
2022/03/05 01:12:21;;;;;;;49.53;21.20;;;0.10;69.50;;;;;;4951478;28;20563;-82
2022/03/05 01:14:48;;;;;;;37.67;17.03;;;0.00;69.40;;;;;;4943808;29;20463;-82
2022/03/05 01:17:18;;;;;;;51.00;22.40;;;0.00;69.40;;;;;;4946585;29;20456;-83
2022/03/05 01:19:45;;;;;;;49.43;20.63;;;0.00;69.40;;;;;;4951018;29;20485;-82
2022/03/05 01:22:12;;;;;;;51.27;21.67;;;0.00;69.40;;;;;;4946142;29;20483;-83
2022/03/05 01:24:38;;;;;;;46.87;23.10;;;-0.10;69.60;;;;;;4951713;29;20449;-83
2022/03/05 01:27:05;;;;;;;53.23;22.50;;;-0.10;71.20;;;;;;4951182;29;20456;-83
2022/03/05 01:29:33;;;;;;;51.42;22.60;;;-0.10;71.70;;;;;;4952522;29;20826;-83
2022/03/05 01:32:00;;;;;;;45.00;20.30;;;0.00;72.20;;;;;;4944300;29;20215;-82
2022/03/05 01:34:27;;;;;;;46.00;20.80;;;-0.10;72.50;;;;;;4948269;29;20463;-83
2022/03/05 01:36:54;;;;;;;49.72;22.20;;;-0.10;73.00;;;;;;4958987;29;20868;-85
2022/03/05 01:39:20;;;;;;;53.80;23.95;;;-0.10;73.30;;;;;;4955873;29;20303;-82
2022/03/05 01:41:51;;;;;;;51.80;24.73;;;-0.10;73.90;;;;;;4945507;29;20243;-82
2022/03/05 01:44:19;;;;;;;54.47;23.67;;;-0.20;74.70;;;;;;4951423;29;20514;-83
2022/03/05 01:46:48;;;;;;;44.70;22.92;;;-0.20;75.60;;;;;;4961945;29;20466;-83
2022/03/05 01:49:15;;;;;;;61.55;23.85;;;-0.30;75.50;;;;;;4951208;29;20195;-83
2022/03/05 01:51:42;;;;;;;51.30;22.60;;;-0.30;76.20;;;;;;4962360;28;20220;-82
2022/03/05 01:54:10;;;;;;;53.67;27.80;;;-0.30;76.80;;;;;;4946433;29;20833;-82
2022/03/05 01:56:38;;;;;;;53.37;27.30;;;-0.40;77.10;;;;;;4956222;29;20974;-83
2022/03/05 01:59:06;;;;;;;48.73;23.63;;;-0.40;78.70;;;;;;4960405;29;20471;-82
2022/03/05 02:01:33;;;;;;;54.88;28.85;;;-0.50;79.20;;;;;;4959161;28;20904;-82
2022/03/05 02:04:01;;;;;;;54.10;25.73;;;-0.60;80.60;;;;;;4942629;29;20227;-82
2022/03/05 02:06:28;;;;;;;56.57;32.17;;;-0.70;81.30;;;;;;4961689;29;20681;-82
2022/03/05 02:08:56;;;;;;;63.03;35.22;;;-0.50;81.90;;;;;;4959726;29;20455;-82
2022/03/05 02:11:23;;;;;;;58.42;30.10;;;-0.60;82.70;;;;;;4945343;29;20215;-83
2022/03/05 02:13:49;;;;;;;66.43;35.80;;;-0.70;82.70;;;;;;4962568;29;20208;-82
2022/03/05 02:16:16;;;;;;;70.88;34.60;;;-0.80;84.00;;;;;;4942931;29;20958;-83
2022/03/05 02:18:45;;;;;;;61.40;38.25;;;-0.80;84.70;;;;;;4958469;29;20220;-82
2022/03/05 02:21:14;;;;;;;58.22;37.35;;;-0.90;85.70;;;;;;4945695;29;20224;-82
2022/03/05 02:23:41;;;;;;;70.22;41.92;;;-0.90;87.50;;;;;;4946161;29;20200;-82
2022/03/05 02:26:08;;;;;;;65.47;51.33;;;-1.00;88.70;;;;;;4957363;29;20200;-82
2022/03/05 02:28:36;;;;;;;84.00;61.58;;;-1.00;89.90;;;;;;4960428;29;20200;-82
2022/03/05 02:31:04;;;;;;;84.43;74.23;;;-1.00;90.50;;;;;;4945919;29;20221;-82
2022/03/05 02:33:30;;;;;;;80.43;64.47;;;-1.00;91.00;;;;;;4956781;29;20466;-82
2022/03/05 02:35:57;;;;;;;80.50;72.00;;;-1.10;91.10;;;;;;4946251;29;20189;-82
2022/03/05 02:38:25;;;;;;;100.55;91.30;;;-1.10;91.80;;;;;;4941742;29;20609;-82
2022/03/05 02:40:53;;;;;;;84.93;76.78;;;-1.10;92.30;;;;;;4956290;28;20228;-82
2022/03/05 02:43:22;;;;;;;98.93;89.18;;;-1.20;92.50;;;;;;4949778;29;20572;-83
2022/03/05 02:45:50;;;;;;;98.93;89.18;;;-1.20;93.20;;;;;;4949005;29;20208;-83
2022/03/05 02:48:18;;;;;;;105.38;95.75;;;-1.20;93.70;;;;;;4948919;29;20296;-82
2022/03/05 02:50:46;;;;;;;115.00;105.20;;;-1.20;93.70;;;;;;4955805;28;20791;-83
2022/03/05 02:53:12;;;;;;;98.47;88.70;;;-1.10;93.80;;;;;;4961255;29;20226;-83
2022/03/05 02:55:41;;;;;;;78.75;71.00;;;-1.00;93.60;;;;;;4954937;28;20196;-82
2022/03/05 02:58:08;;;;;;;79.90;71.80;;;-1.00;93.80;;;;;;4958964;29;20197;-81
2022/03/05 03:00:35;;;;;;;90.65;81.40;;;-0.90;93.60;;;;;;4945681;29;20237;-82
2022/03/05 03:03:02;;;;;;;79.00;68.75;;;-0.80;93.50;;;;;;4942076;29;20198;-82
2022/03/05 03:05:29;;;;;;;80.22;71.38;;;-0.80;92.90;;;;;;4951703;29;20689;-83
2022/03/05 03:07:55;;;;;;;81.43;72.57;;;-0.80;92.80;;;;;;4961249;29;20196;-82
2022/03/05 03:10:22;;;;;;;83.32;74.35;;;-0.80;92.80;;;;;;4951566;29;20217;-83
2022/03/05 03:12:50;;;;;;;66.63;58.53;;;-0.70;92.90;;;;;;4941372;29;20201;-83
2022/03/05 03:15:17;;;;;;;79.50;59.05;;;-0.70;92.70;;;;;;4946515;29;20197;-82
2022/03/05 03:17:47;;;;;;;73.85;57.63;;;-0.70;92.10;;;;;;4954391;29;20203;-82
2022/03/05 03:20:16;;;;;;;76.65;56.65;;;-0.70;92.00;;;;;;4947869;29;20236;-82
2022/03/05 03:22:43;;;;;;;80.15;50.08;;;-0.80;92.20;;;;;;4957494;29;20208;-82
2022/03/05 03:25:11;;;;;;;69.37;53.97;;;-0.90;92.40;;;;;;4955883;29;20279;-82
2022/03/05 03:27:38;;;;;;;76.13;53.28;;;-0.80;92.40;;;;;;4945326;29;20452;-82
2022/03/05 03:30:08;;;;;;;71.95;50.47;;;-0.90;92.70;;;;;;4956797;28;20200;-83
2022/03/05 03:32:35;;;;;;;64.60;50.85;;;-0.90;92.90;;;;;;4951376;29;20663;-83
2022/03/05 03:35:02;;;;;;;67.70;54.53;;;-0.90;93.20;;;;;;4956723;29;20196;-84
2022/03/05 03:37:31;;;;;;;82.85;52.85;;;-0.90;93.20;;;;;;4960543;29;20204;-82
2022/03/05 03:39:58;;;;;;;71.90;62.88;;;-0.90;92.90;;;;;;4949171;29;20222;-81
2022/03/05 03:42:26;;;;;;;63.80;55.40;;;-0.90;92.90;;;;;;4953858;28;20227;-83
2022/03/05 03:44:53;;;;;;;78.53;60.28;;;-1.00;93.00;;;;;;4954290;29;20204;-82
2022/03/05 03:47:22;;;;;;;73.25;65.38;;;-0.90;93.20;;;;;;4942369;29;20201;-83
2022/03/05 03:49:49;;;;;;;78.03;69.68;;;-0.90;93.20;;;;;;4949015;29;20216;-83
2022/03/05 03:52:16;;;;;;;72.43;60.22;;;-0.90;93.10;;;;;;4948236;28;20217;-83
2022/03/05 03:54:44;;;;;;;68.78;61.35;;;-0.90;93.00;;;;;;4942126;29;20201;-83
2022/03/05 03:57:12;;;;;;;80.70;72.15;;;-1.00;92.90;;;;;;4955650;29;20212;-82
2022/03/05 03:59:38;;;;;;;69.47;61.88;;;-1.00;93.10;;;;;;4943046;29;20582;-82
2022/03/05 04:02:06;;;;;;;90.60;81.97;;;-1.00;92.90;;;;;;4994781;23;20230;-80
2022/03/05 04:04:35;;;;;;;67.95;60.58;;;-0.90;93.20;;;;;;4979057;28;20207;-80
2022/03/05 04:09:46;;;;;;;70.63;57.35;;;-1.00;92.90;;;;;;4978634;28;20191;-80
2022/03/05 04:12:13;;;;;;;81.68;73.03;;;-1.00;93.10;;;;;;4965659;28;20307;-80
2022/03/05 04:14:39;;;;;;;84.50;75.47;;;-1.00;93.40;;;;;;4960656;28;20196;-80
2022/03/05 04:17:06;;;;;;;89.00;80.30;;;-1.00;93.60;;;;;;4960678;28;20203;-80
2022/03/05 04:19:35;;;;;;;85.22;76.28;;;-1.00;93.80;;;;;;4960724;28;20217;-80
2022/03/05 04:22:02;;;;;;;79.10;70.80;;;-1.00;93.80;;;;;;4960328;28;20212;-80
2022/03/05 04:24:28;;;;;;;90.45;81.03;;;-1.00;93.80;;;;;;4960210;28;20210;-80
2022/03/05 04:26:56;;;;;;;89.85;81.05;;;-1.20;93.70;;;;;;4960658;28;20210;-80
2022/03/05 04:29:22;;;;;;;92.22;83.03;;;-1.20;93.70;;;;;;4959636;28;20188;-80
2022/03/05 04:31:49;;;;;;;102.70;94.30;;;-1.20;93.70;;;;;;4940984;29;20601;-80
2022/03/05 04:34:16;;;;;;;118.88;110.30;;;-1.20;94.20;;;;;;4954839;29;20208;-80
2022/03/05 04:36:45;;;;;;;96.93;87.78;;;-1.20;94.10;;;;;;4959734;28;20192;-79
2022/03/05 04:39:11;;;;;;;134.40;124.50;;;-1.30;93.70;;;;;;4958289;28;20212;-80
2022/03/05 04:41:39;;;;;;;135.52;125.07;;;-1.30;94.40;;;;;;4961117;28;20223;-80
2022/03/05 04:44:06;;;;;;;141.95;130.50;;;-1.40;94.70;;;;;;4956495;28;20212;-80
2022/03/05 04:46:33;;;;;;;146.88;135.80;;;-1.40;95.20;;;;;;4957997;28;20203;-80
2022/03/05 04:49:00;;;;;;;145.80;135.50;;;-1.40;95.40;;;;;;4957165;28;20286;-80
2022/03/05 04:51:27;;;;;;;162.70;151.05;;;-1.40;95.70;;;;;;4960864;28;20224;-80
2022/03/05 04:53:55;;;;;;;142.18;131.88;;;-1.30;95.40;;;;;;4942822;28;20197;-80
2022/03/05 04:56:21;;;;;;;172.20;159.88;;;-1.40;95.10;;;;;;4959776;28;20197;-80
2022/03/05 04:58:48;;;;;;;153.32;142.15;;;-1.40;95.40;;;;;;4959604;28;20208;-80
2022/03/05 05:01:16;;;;;;;140.88;131.90;;;-1.30;95.70;;;;;;4960395;28;20236;-80
2022/03/05 05:03:42;;;;;;;155.68;143.63;;;-1.30;95.70;;;;;;4960250;28;20196;-80
2022/03/05 05:06:09;;;;;;;144.80;134.13;;;-1.40;95.70;;;;;;4960012;28;20208;-81
2022/03/05 05:08:36;;;;;;;152.48;140.27;;;-1.50;95.80;;;;;;4959494;28;20206;-80
2022/03/05 05:11:04;;;;;;;192.27;179.98;;;-1.50;96.50;;;;;;4960640;28;20226;-80
2022/03/05 05:13:31;;;;;;;197.40;184.05;;;-1.50;96.90;;;;;;4959937;28;20200;-80
2022/03/05 05:15:58;;;;;;;209.32;197.57;;;-1.70;97.40;;;;;;4960590;28;20219;-81
2022/03/05 05:18:25;;;;;;;211.40;197.95;;;-1.60;98.10;;;;;;4957992;28;20204;-80
2022/03/05 05:20:51;;;;;;;221.48;207.20;;;-1.60;98.10;;;;;;4959578;28;20216;-80
2022/03/05 05:23:18;;;;;;;244.07;228.93;;;-1.70;98.30;;;;;;4960049;28;20203;-80
2022/03/05 05:25:45;;;;;;;271.38;256.13;;;-1.60;98.80;;;;;;4958498;28;20204;-80
2022/03/05 05:28:13;;;;;;;249.32;234.48;;;-1.60;99.70;;;;;;4960301;28;20285;-79
2022/03/05 05:30:40;;;;;;;262.40;246.00;;;-1.60;99.40;;;;;;4960395;28;20260;-79
2022/03/05 05:33:07;;;;;;;312.15;292.23;;;-1.70;99.80;;;;;;4960039;28;20196;-80
2022/03/05 05:35:33;;;;;;;253.00;237.00;;;-1.70;99.90;;;;;;4965345;28;20208;-80
2022/03/05 05:38:00;;;;;;;289.27;271.92;;;-1.70;99.90;;;;;;4965065;28;20203;-80
2022/03/05 05:40:27;;;;;;;257.42;242.52;;;-1.60;99.90;;;;;;4961006;28;20212;-80
2022/03/05 05:42:54;;;;;;;247.80;232.93;;;-1.70;99.90;;;;;;4960058;28;20196;-80
2022/03/05 05:45:22;;;;;;;241.23;226.30;;;-1.60;99.90;;;;;;4958978;28;20207;-81
2022/03/05 05:47:49;;;;;;;233.55;219.60;;;-1.60;99.90;;;;;;4960819;28;20227;-80
2022/03/05 05:50:16;;;;;;;221.20;208.65;;;-1.60;99.90;;;;;;4960631;28;20197;-80
2022/03/05 05:52:42;;;;;;;251.65;236.75;;;-1.60;99.90;;;;;;4964524;28;20651;-80
2022/03/05 05:55:09;;;;;;;239.32;224.70;;;-1.70;99.90;;;;;;4967235;28;20196;-80
2022/03/05 05:57:37;;;;;;;247.45;233.40;;;-1.60;99.90;;;;;;4966769;28;20227;-79
2022/03/05 06:00:04;;;;;;;227.18;213.40;;;-1.50;99.90;;;;;;4967395;28;20248;-80
2022/03/05 06:02:35;;;;;;;251.38;236.90;;;-1.50;99.90;;;;;;4963428;28;20230;-79
2022/03/05 06:05:02;;;;;;;255.38;240.60;;;-1.60;99.90;;;;;;4963404;28;20205;-80
2022/03/05 06:07:29;;;;;;;239.38;223.38;;;-1.50;99.90;;;;;;4962668;28;20259;-81
2022/03/05 06:12:58;;;;;;;262.23;247.68;;;-1.60;99.90;;;;;;4941771;28;20789;-81
2022/03/05 06:15:25;;;;;;;276.45;259.58;;;-1.60;99.90;;;;;;4962810;28;20200;-80
2022/03/05 06:17:54;;;;;;;306.90;289.58;;;-1.70;99.90;;;;;;4962974;28;20201;-81
2022/03/05 06:20:21;;;;;;;312.33;294.65;;;-1.60;99.90;;;;;;4961689;28;20231;-80
2022/03/05 06:22:48;;;;;;;293.88;277.77;;;-1.50;99.90;;;;;;4962831;28;20196;-80
2022/03/05 06:25:17;;;;;;;303.42;286.30;;;-1.60;99.90;;;;;;4963330;28;20226;-80
2022/03/05 06:28:04;;;;;;;;;;;;;;;;;;;;;
2022/03/05 06:30:31;;;;;;;312.48;293.50;;;-1.60;99.90;;;;;;4963589;28;20716;-79
2022/03/05 06:33:02;;;;;;;341.58;323.77;;;-1.60;99.90;;;;;;4962955;28;20201;-80
2022/03/05 06:35:35;;;;;;;286.73;269.25;;;-1.50;99.90;;;;;;4960145;29;20463;-80
2022/03/05 06:38:02;;;;;;;289.08;271.95;;;-1.50;99.90;;;;;;4964591;28;20218;-81
2022/03/05 06:40:29;;;;;;;278.88;262.95;;;-1.40;99.90;;;;;;4963367;28;20652;-80
2022/03/05 06:42:56;;;;;;;289.15;272.73;;;-1.40;99.90;;;;;;4963516;28;20208;-81
2022/03/05 06:45:23;;;;;;;297.88;281.98;;;-1.30;99.90;;;;;;4965029;28;20196;-80
2022/03/05 06:47:50;;;;;;;279.48;265.17;;;-1.30;99.90;;;;;;4962883;28;20200;-80
2022/03/05 06:50:18;;;;;;;308.75;291.95;;;-1.30;99.90;;;;;;4964363;28;20196;-80
2022/03/05 06:52:46;;;;;;;294.13;277.80;;;-1.30;99.90;;;;;;4964563;28;20212;-80
2022/03/05 06:55:18;;;;;;;273.77;258.75;;;-1.20;99.90;;;;;;4962432;28;20224;-79
2022/03/05 06:57:45;;;;;;;288.92;273.38;;;-1.20;99.90;;;;;;4962296;28;20192;-81
2022/03/05 07:00:32;;;;;;;276.05;261.13;;;-1.00;99.90;;;;;;4962001;28;20208;-80
2022/03/05 07:03:25;;;;;;;241.63;228.40;;;-0.90;99.90;;;;;;4964035;28;20570;-81
2022/03/05 07:06:42;;;;;;;224.63;211.65;;;-0.80;99.90;;;;;;4949583;28;20213;-81
2022/03/05 07:09:22;;;;;;;215.10;202.00;;;-0.80;99.90;;;;;;4959499;28;20264;-81
2022/03/05 07:12:25;;;;;;;210.57;198.70;;;-0.70;99.70;;;;;;4963150;28;20396;-81
2022/03/05 07:15:44;;;;;;;172.68;162.43;;;-0.70;99.90;;;;;;4929032;29;20207;-80
2022/03/05 07:18:31;;;;;;;151.60;140.93;;;-0.70;99.30;;;;;;4960821;28;20263;-80
2022/03/05 07:20:58;;;;;;;138.10;128.10;;;-0.50;98.40;;;;;;4911113;29;20218;-80
2022/03/05 07:23:38;;;;;;;109.30;101.90;;;-0.40;97.60;;;;;;4957581;28;20197;-81
2022/03/05 07:26:04;;;;;;;85.63;77.60;;;-0.30;96.70;;;;;;4962535;28;20192;-80
2022/03/05 07:28:32;;;;;;;80.60;72.03;;;-0.20;95.90;;;;;;4963524;28;20193;-80
2022/03/05 07:31:04;;;;;;;85.73;62.10;;;0.00;95.40;;;;;;4963228;28;20530;-80
2022/03/05 07:33:41;;;;;;;61.42;43.88;;;0.10;94.20;;;;;;4963190;28;20456;-81
2022/03/05 07:36:19;;;;;;;68.43;47.97;;;0.10;94.60;;;;;;4963909;28;20188;-81
2022/03/05 07:39:19;;;;;;;59.90;36.33;;;0.20;93.60;;;;;;4963154;29;20462;-80
2022/03/05 07:45:42;;;;;;;59.60;31.30;;;0.50;92.20;;;;;;4961514;28;20992;-81
2022/03/05 07:48:21;;;;;;;48.50;29.50;;;0.60;91.00;;;;;;4928470;28;20514;-80
2022/03/05 07:53:37;;;;;;;57.57;26.93;;;0.80;90.00;;;;;;4962195;28;20536;-79
2022/03/05 07:56:04;;;;;;;50.30;25.40;;;0.80;87.40;;;;;;4959189;28;20452;-77
2022/03/05 07:58:31;;;;;;;48.22;24.95;;;0.90;87.40;;;;;;4958401;28;20459;-80
2022/03/05 08:00:58;;;;;;;49.20;23.33;;;1.00;85.50;;;;;;4958601;28;20303;-80
2022/03/05 08:03:31;;;;;;;59.40;26.90;;;1.10;85.60;;;;;;4959223;28;20462;-84
2022/03/05 08:05:58;;;;;;;56.63;23.30;;;1.10;85.60;;;;;;4959273;28;20976;-81
2022/03/05 08:08:25;;;;;;;53.53;23.13;;;1.20;83.70;;;;;;4959616;28;20526;-80
2022/03/05 08:10:52;;;;;;;39.07;18.67;;;1.30;83.10;;;;;;4960522;28;20481;-80
2022/03/05 08:13:19;;;;;;;50.37;24.90;;;1.30;81.10;;;;;;4960419;28;20839;-80
2022/03/05 08:15:48;;;;;;;47.90;22.10;;;1.40;80.80;;;;;;4959949;28;20937;-80
2022/03/05 08:18:17;;;;;;;49.57;20.67;;;1.50;79.50;;;;;;4958722;28;20503;-79
2022/03/05 08:20:45;;;;;;;44.70;20.00;;;1.70;78.20;;;;;;4957966;28;20562;-80
2022/03/05 08:23:12;;;;;;;52.90;22.83;;;1.80;78.90;;;;;;4960244;28;20484;-81
2022/03/05 08:25:39;;;;;;;49.00;21.77;;;1.80;78.70;;;;;;4960402;28;20455;-80
2022/03/05 08:28:06;;;;;;;48.47;21.47;;;1.90;78.30;;;;;;4960081;28;20448;-80
2022/03/05 08:33:30;;;;;;;43.87;19.30;;;2.00;75.30;;;;;;4954593;29;21000;-81
2022/03/05 08:36:00;;;;;;;45.47;20.30;;;2.10;75.90;;;;;;4956223;29;20456;-80
2022/03/05 08:38:41;;;;;;;55.53;25.83;;;2.30;72.10;;;;;;4960289;28;20516;-80
2022/03/05 08:41:26;;;;;;;45.70;22.20;;;2.30;71.50;;;;;;4958582;28;20514;-80
2022/03/05 08:43:53;;;;;;;46.17;21.33;;;2.40;72.90;;;;;;4950987;29;20448;-80
2022/03/05 08:46:20;;;;;;;50.53;22.17;;;2.40;71.50;;;;;;4959619;28;20440;-81
2022/03/05 08:48:47;;;;;;;50.80;23.13;;;2.70;71.70;;;;;;4962147;28;20483;-81
2022/03/05 08:51:16;;;;;;;56.07;23.50;;;2.60;69.20;;;;;;4960148;28;20468;-80
2022/03/05 08:53:43;;;;;;;50.17;23.73;;;2.80;69.50;;;;;;4960625;28;20451;-81
2022/03/05 08:56:10;;;;;;;48.03;21.53;;;2.80;68.00;;;;;;4958917;28;20463;-80
2022/03/05 08:58:37;;;;;;;44.33;22.37;;;2.90;67.20;;;;;;4957655;28;20540;-80
2022/03/05 09:03:06;;;;;;;40.20;19.50;;;3.00;65.50;;;;;;5116979;27;20573;-80
2022/03/05 09:05:33;;;;;;;58.43;24.07;;;3.30;63.50;;;;;;5115374;28;20456;-80
2022/03/05 09:08:00;;;;;;;46.33;21.33;;;3.40;62.10;;;;;;5115279;28;20441;-80
2022/03/05 09:10:27;;;;;;;47.60;23.58;;;3.70;58.30;;;;;;5115101;28;20451;-82
2022/03/05 09:12:53;;;;;;;46.57;23.83;;;4.00;57.30;;;;;;5098432;28;20206;-81
2022/03/05 09:15:20;;;;;;;39.50;22.20;;;4.30;53.70;;;;;;5079314;22;20488;-84
2022/03/05 09:17:47;;;;;;;39.60;21.13;;;4.70;52.10;;;;;;5031403;28;20828;-84
2022/03/05 09:20:15;;;;;;;43.97;21.60;;;4.90;48.00;;;;;;5029054;28;20553;-84
2022/03/05 09:22:42;;;;;;;39.57;21.17;;;5.40;48.10;;;;;;5030177;28;20475;-84
2022/03/05 09:25:10;;;;;;;45.33;23.97;;;5.70;43.70;;;;;;5030067;28;20545;-84
2022/03/05 09:27:37;;;;;;;45.28;24.23;;;6.10;41.50;;;;;;5029768;28;20458;-84
2022/03/05 09:30:05;;;;;;;36.23;21.57;;;6.50;38.60;;;;;;5029557;28;20578;-84
2022/03/05 09:32:31;;;;;;;46.20;24.23;;;6.70;36.20;;;;;;5028700;28;20890;-84
2022/03/05 09:34:59;;;;;;;44.83;20.90;;;6.90;33.90;;;;;;5029886;28;20476;-84
2022/03/05 09:37:28;;;;;;;41.80;21.13;;;7.10;31.50;;;;;;5028091;28;20452;-85
2022/03/05 09:39:55;;;;;;;46.50;22.03;;;7.00;30.40;;;;;;5030445;28;20453;-85
2022/03/05 09:42:21;;;;;;;39.97;19.50;;;6.90;30.40;;;;;;5030121;28;20472;-84
2022/03/05 09:44:48;;;;;;;35.83;20.93;;;7.20;31.00;;;;;;5029885;28;20483;-85
2022/03/05 09:47:16;;;;;;;39.33;22.03;;;7.30;29.10;;;;;;5030116;28;20456;-85
2022/03/05 09:49:43;;;;;;;43.95;21.55;;;7.50;27.80;;;;;;5029297;28;20481;-84
2022/03/05 09:52:11;;;;;;;36.43;19.67;;;7.90;27.40;;;;;;5029998;28;20786;-85
2022/03/05 09:54:39;;;;;;;38.13;20.90;;;7.90;26.40;;;;;;5030831;28;20883;-85
2022/03/05 09:57:10;;;;;;;34.37;21.87;;;7.90;25.40;;;;;;5030469;28;20543;-85
2022/03/05 09:59:37;;;;;;;43.83;21.50;;;8.20;24.80;;;;;;5030656;28;20480;-85
2022/03/05 10:02:05;;;;;;;38.67;21.93;;;8.50;25.20;;;;;;5030121;28;20473;-84
2022/03/05 10:04:32;;;;;;;39.97;21.77;;;8.40;23.60;;;;;;5032185;28;20479;-85
2022/03/05 10:07:10;;;;;;;31.93;19.30;;;8.50;23.30;;;;;;5029246;28;20832;-85
2022/03/05 10:09:39;;;;;;;32.03;18.30;;;8.80;22.50;;;;;;5029172;28;20455;-83
2022/03/05 10:12:26;;;;;;;39.47;20.97;;;9.00;21.10;;;;;;5030188;28;20452;-85
2022/03/05 10:15:07;;;;;;;41.67;21.50;;;9.20;20.10;;;;;;4996681;28;20485;-85
2022/03/05 10:17:52;;;;;;;35.60;19.03;;;8.70;19.70;;;;;;4996876;28;20973;-86
2022/03/05 10:20:20;;;;;;;33.40;19.60;;;9.00;19.90;;;;;;5014003;28;20452;-85
2022/03/05 10:22:58;;;;;;;35.43;18.60;;;9.50;20.30;;;;;;5015290;28;20531;-85
2022/03/05 10:25:33;;;;;;;33.50;18.30;;;9.70;17.90;;;;;;5015394;28;20476;-86
2022/03/05 10:28:06;;;;;;;34.97;20.47;;;9.80;16.90;;;;;;5015850;28;20557;-85
2022/03/05 10:30:34;;;;;;;33.83;20.40;;;9.70;16.00;;;;;;5015152;28;20523;-86
2022/03/05 10:33:01;;;;;;;39.27;21.27;;;10.30;14.70;;;;;;5016443;28;20460;-87
2022/03/05 10:35:28;;;;;;;35.37;19.97;;;10.40;13.60;;;;;;5015217;28;20477;-86
2022/03/05 10:37:54;;;;;;;39.50;21.50;;;10.60;12.90;;;;;;5014598;28;20456;-85
2022/03/05 10:40:31;;;;;;;36.20;22.35;;;10.60;13.10;;;;;;5013581;28;20834;-86
2022/03/05 10:43:04;;;;;;;37.60;21.42;;;11.00;13.20;;;;;;5016540;28;20450;-85
2022/03/05 10:48:33;;;;;;;30.70;19.43;;;11.20;11.30;;;;;;4983765;28;20450;-85
2022/03/05 10:51:01;;;;;;;36.50;20.13;;;11.50;11.20;;;;;;5013896;28;20461;-84
2022/03/05 10:53:42;;;;;;;34.53;20.17;;;11.20;10.10;;;;;;5016083;28;20457;-84
2022/03/05 10:56:37;;;;;;;29.73;18.73;;;11.60;9.50;;;;;;5001731;28;20893;-84
2022/03/05 10:59:11;;;;;;;34.20;19.90;;;11.40;6.80;;;;;;4962563;28;20844;-85
2022/03/05 11:01:42;;;;;;;34.63;21.20;;;11.90;6.40;;;;;;5020127;28;20488;-85
2022/03/05 11:04:10;;;;;;;34.03;20.37;;;12.10;7.40;;;;;;5019585;28;20836;-85
2022/03/05 11:06:38;;;;;;;38.50;21.10;;;11.90;5.50;;;;;;5018929;28;20529;-84
2022/03/05 11:09:05;;;;;;;33.17;20.30;;;11.80;5.80;;;;;;5016757;28;20460;-84
2022/03/05 11:11:35;;;;;;;32.90;19.33;;;12.50;6.00;;;;;;5017814;28;20480;-84
2022/03/05 11:14:04;;;;;;;34.13;21.20;;;12.40;5.30;;;;;;5019490;28;20461;-84
2022/03/05 11:16:31;;;;;;;32.27;20.07;;;12.80;2.90;;;;;;5020942;28;20456;-85
2022/03/05 11:18:58;;;;;;;32.53;19.70;;;12.80;1.90;;;;;;5017507;28;20474;-85
2022/03/05 11:21:28;;;;;;;31.40;19.57;;;13.10;3.30;;;;;;5020734;28;20465;-85
2022/03/05 11:23:56;;;;;;;26.23;16.97;;;13.40;1.40;;;;;;5019436;28;20449;-85
2022/03/05 11:26:23;;;;;;;30.47;18.17;;;13.00;1.00;;;;;;5018867;28;20467;-84
2022/03/05 11:28:53;;;;;;;31.40;19.73;;;13.60;1.00;;;;;;5018300;28;20484;-83
2022/03/05 11:31:23;;;;;;;25.90;16.50;;;13.50;1.00;;;;;;5014641;28;20454;-85
2022/03/05 11:33:51;;;;;;;33.27;20.67;;;13.70;1.00;;;;;;5013859;28;20462;-83
2022/03/05 11:36:28;;;;;;;29.60;18.27;;;13.80;1.00;;;;;;5014527;28;20459;-84
2022/03/05 11:39:09;;;;;;;28.07;18.33;;;14.10;1.00;;;;;;5014553;28;20455;-84
2022/03/05 11:41:49;;;;;;;26.47;17.47;;;14.30;1.00;;;;;;5013403;28;20852;-85
2022/03/05 11:44:17;;;;;;;26.13;16.90;;;14.50;1.00;;;;;;5014335;28;20489;-85
2022/03/05 11:46:45;;;;;;;25.63;17.60;;;14.40;1.00;;;;;;5014334;28;20451;-86
2022/03/05 11:49:13;;;;;;;28.27;18.17;;;14.30;1.00;;;;;;5012906;28;20482;-86
2022/03/05 11:51:52;;;;;;;30.10;17.47;;;14.20;1.00;;;;;;5014026;28;21076;-84
2022/03/05 11:54:19;;;;;;;28.50;18.20;;;14.30;1.00;;;;;;5013354;28;20473;-85
2022/03/05 11:57:04;;;;;;;29.03;19.30;;;14.80;1.00;;;;;;5013389;28;20470;-84
2022/03/05 11:59:35;;;;;;;30.63;17.40;;;14.50;1.00;;;;;;5013405;28;20452;-85
2022/03/05 12:02:04;;;;;;;25.83;16.03;;;15.10;1.00;;;;;;5013305;28;20482;-85
2022/03/05 12:04:31;;;;;;;25.27;16.77;;;15.60;1.00;;;;;;5014231;28;20492;-85
2022/03/05 12:07:01;;;;;;;25.40;17.20;;;14.80;1.00;;;;;;5013831;28;20486;-84
2022/03/05 12:09:39;;;;;;;27.60;15.57;;;15.10;1.00;;;;;;5014903;28;20483;-83
2022/03/05 12:12:08;;;;;;;26.03;16.43;;;14.80;1.00;;;;;;5012946;28;20468;-83
2022/03/05 12:15:09;;;;;;;59.97;20.70;;;15.00;1.00;;;;;;5013196;28;20496;-82
2022/03/05 12:17:40;;;;;;;26.20;17.53;;;15.20;1.00;;;;;;5015858;28;20454;-85
2022/03/05 12:20:09;;;;;;;29.07;17.30;;;15.30;1.00;;;;;;5012732;28;20938;-85
2022/03/05 12:22:35;;;;;;;24.80;16.53;;;15.10;1.00;;;;;;5012996;28;20479;-85
2022/03/05 12:25:02;;;;;;;75.33;24.70;;;15.20;1.00;;;;;;5014649;28;20479;-85
2022/03/05 12:27:31;;;;;;;24.50;15.63;;;16.00;1.00;;;;;;5017915;28;20524;-84
2022/03/05 12:29:58;;;;;;;26.87;15.23;;;16.30;1.00;;;;;;5018693;28;20483;-84
2022/03/05 12:32:30;;;;;;;25.67;16.87;;;15.70;1.00;;;;;;5019692;28;20450;-80
2022/03/05 12:38:38;;;;;;;25.03;15.20;;;15.80;1.00;;;;;;4921270;29;20441;-84
2022/03/05 12:41:04;;;;;;;24.37;15.50;;;15.80;1.00;;;;;;4921593;29;20454;-85
2022/03/05 12:43:31;;;;;;;29.23;16.60;;;16.10;1.00;;;;;;4973890;28;20868;-87
2022/03/05 12:45:58;;;;;;;23.37;15.30;;;16.60;1.00;;;;;;5013554;28;20474;-85
2022/03/05 12:48:25;;;;;;;23.93;15.93;;;15.50;1.00;;;;;;5014945;28;20489;-85
2022/03/05 12:50:54;;;;;;;20.20;14.30;;;16.00;1.00;;;;;;5013008;28;20451;-84
2022/03/05 12:53:23;;;;;;;21.13;14.53;;;16.20;1.00;;;;;;5012998;28;20491;-84
2022/03/05 12:55:51;;;;;;;22.53;14.70;;;16.20;1.00;;;;;;5012518;28;20474;-85
2022/03/05 12:58:21;;;;;;;19.67;13.53;;;16.50;1.00;;;;;;5012247;28;20456;-85
2022/03/05 13:00:50;;;;;;;19.07;13.60;;;15.80;1.00;;;;;;5012624;28;20947;-85
2022/03/05 13:03:17;;;;;;;21.70;12.60;;;15.50;1.00;;;;;;5012292;28;20479;-84